Time;durP1;ratioP1;P1;durP2;ratioP2;P2;SDS_P1;SDS_P2;PMS_P1;PMS_P2;Temp;Humidity;BMP_temperature;BMP_pressure;BME280_temperature;BME280_humidity;BME280_pressure;Samples;Min_cycle;Max_cycle;Signal;HPM_P1;HPM_P2
2022/06/03 00:01:29;;;;;;;3.78;3.42;;;10.70;75.20;;;;;;5013530;28;20022;-70
2022/06/03 00:04:25;;;;;;;4.85;4.03;;;10.70;75.20;;;;;;5014123;28;20030;-70
2022/06/03 00:07:08;;;;;;;3.75;3.05;;;10.70;75.60;;;;;;4987637;28;20018;-70
2022/06/03 00:09:58;;;;;;;5.38;3.28;;;10.60;75.40;;;;;;5012097;28;20041;-71
2022/06/03 00:12:36;;;;;;;3.60;3.30;;;10.60;75.70;;;;;;5012817;28;20060;-71
2022/06/03 00:15:40;;;;;;;5.43;3.92;;;10.60;75.90;;;;;;5011864;28;20492;-72
2022/06/03 00:18:30;;;;;;;3.95;3.65;;;10.50;76.00;;;;;;4982853;28;20125;-70
2022/06/03 00:21:02;;;;;;;4.55;4.15;;;10.50;76.10;;;;;;5012119;28;20429;-70
2022/06/03 00:23:56;;;;;;;4.72;3.70;;;10.50;76.40;;;;;;4993438;28;20027;-71
2022/06/03 00:26:52;;;;;;;4.07;3.67;;;10.50;76.00;;;;;;5011203;28;21005;-69
2022/06/03 00:29:33;;;;;;;3.97;3.58;;;10.40;76.30;;;;;;5011293;28;20480;-70
2022/06/03 00:32:46;;;;;;;3.90;3.50;;;10.40;76.30;;;;;;5013095;28;20112;-71
2022/06/03 00:35:38;;;;;;;4.68;3.67;;;10.30;76.50;;;;;;4973792;28;20019;-71
2022/06/03 00:38:19;;;;;;;4.95;4.03;;;10.20;76.70;;;;;;5002495;28;20038;-73
2022/06/03 00:41:36;;;;;;;4.93;4.22;;;10.20;76.70;;;;;;5011899;28;20460;-72
2022/06/03 00:44:29;;;;;;;5.05;3.95;;;10.20;76.60;;;;;;4982454;28;20481;-70
2022/06/03 00:47:05;;;;;;;3.92;3.50;;;10.10;76.90;;;;;;5012440;28;20079;-70
2022/06/03 00:49:49;;;;;;;4.35;3.95;;;10.10;77.00;;;;;;5013507;28;20548;-70
2022/06/03 00:52:36;;;;;;;4.18;3.80;;;10.10;77.10;;;;;;5010860;28;20030;-70
2022/06/03 00:55:39;;;;;;;5.20;3.78;;;10.00;77.20;;;;;;5012109;28;20076;-71
2022/06/03 00:58:20;;;;;;;4.90;4.28;;;10.00;77.40;;;;;;5011481;28;20022;-72
2022/06/03 01:00:52;;;;;;;4.43;3.72;;;;;;;;;;5011228;28;20164;-70
2022/06/03 01:03:24;;;;;;;4.88;3.90;;;;;;;;;;5012153;28;20029;-70
2022/06/03 01:06:02;;;;;;;4.32;3.92;;;;;;;;;;5011861;28;20029;-70
2022/06/03 01:08:58;;;;;;;4.18;3.78;;;;;;;;;;4993939;28;20093;-72
2022/06/03 01:11:33;;;;;;;4.60;4.20;;;;;;;;;;4998938;28;20038;-70
2022/06/03 01:14:37;;;;;;;4.40;4.00;;;;;;;;;;5012255;28;20022;-71
2022/06/03 01:17:09;;;;;;;5.45;4.40;;;;;;;;;;4953733;28;20596;-67
2022/06/03 01:19:38;;;;;;;5.00;4.07;;;;;;;;;;4970725;28;20034;-69
2022/06/03 01:22:16;;;;;;;6.80;4.00;;;;;;;;;;4982237;28;20038;-69
2022/06/03 01:24:48;;;;;;;4.75;4.30;;;;;;;;;;5012386;28;20037;-71
2022/06/03 01:27:14;;;;;;;4.57;4.07;;;;;;;;;;5011799;28;20025;-70
2022/06/03 01:30:10;;;;;;;4.78;4.13;;;;;;;;;;5011701;28;20028;-70
2022/06/03 01:32:48;;;;;;;4.50;4.10;;;;;;;;;;4937820;28;20039;-70
2022/06/03 01:35:32;;;;;;;4.68;4.28;;;;;;;;;;4992418;28;20022;-69
2022/06/03 01:38:22;;;;;;;6.40;4.40;;;;;;;;;;5011101;28;20030;-70
2022/06/03 01:40:48;;;;;;;5.18;4.35;;;;;;;;;;4985526;28;20014;-70
2022/06/03 01:43:35;;;;;;;4.75;4.30;;;;;;;;;;5012619;28;20036;-71
2022/06/03 01:46:12;;;;;;;5.35;4.60;;;;;;;;;;4990101;28;20563;-71
2022/06/03 01:48:56;;;;;;;6.05;5.00;;;;;;;;;;4999966;28;20062;-71
2022/06/03 01:51:41;;;;;;;5.30;4.57;;;;;;;;;;5003063;28;20026;-71
2022/06/03 01:54:26;;;;;;;5.78;4.70;;;;;;;;;;5011203;28;20049;-71
2022/06/03 01:57:11;;;;;;;5.65;4.78;;;;;;;;;;5015673;28;20028;-70
2022/06/03 01:59:52;;;;;;;5.60;5.10;;;;;;;;;;5015350;28;20030;-70
2022/06/03 02:02:18;;;;;;;5.97;4.93;;;;;;;;;;5015405;28;20366;-71
2022/06/03 02:04:47;;;;;;;5.95;4.95;;;;;;;;;;5015345;28;20101;-72
2022/06/03 02:07:16;;;;;;;5.50;4.80;;;;;;;;;;5005429;28;20057;-70
2022/06/03 02:09:45;;;;;;;5.25;4.75;;;;;;;;;;5009719;28;20488;-73
2022/06/03 02:12:23;;;;;;;6.05;5.03;;;;;;;;;;5015403;28;20065;-71
2022/06/03 02:15:04;;;;;;;5.72;5.13;;;;;;;;;;5015253;28;20014;-71
2022/06/03 02:17:49;;;;;;;5.60;5.07;;;;;;;;;;5014628;28;20021;-70
2022/06/03 02:20:18;;;;;;;5.03;4.63;;;;;;;;;;5013662;28;20054;-70
2022/06/03 02:22:56;;;;;;;5.75;5.10;;;;;;;;;;5015085;28;20025;-69
2022/06/03 02:25:41;;;;;;;6.72;4.82;;;;;;;;;;5015160;28;20029;-70
2022/06/03 02:28:26;;;;;;;7.80;5.78;;;;;;;;;;5013907;28;20057;-70
2022/06/03 02:31:07;;;;;;;5.60;5.03;;;;;;;;;;5014680;28;20025;-70
2022/06/03 02:33:45;;;;;;;5.82;5.05;;;;;;;;;;5014766;28;20375;-70
2022/06/03 02:36:17;;;;;;;6.03;5.43;;;;;;;;;;5014477;28;20026;-71
2022/06/03 02:38:56;;;;;;;5.65;4.97;;;;;;;;;;5012523;28;20468;-70
2022/06/03 02:41:38;;;;;;;6.50;5.75;;;;;;;;;;5014475;28;20026;-71
2022/06/03 02:44:10;;;;;;;5.97;5.30;;;;;;;;;;5013950;28;20055;-71
2022/06/03 02:46:54;;;;;;;6.28;4.90;;;;;;;;;;5013136;28;20025;-72
2022/06/03 02:49:39;;;;;;;6.32;4.70;;;;;;;;;;5013506;28;20048;-70
2022/06/03 02:52:17;;;;;;;5.55;4.95;;;;;;;;;;5013790;28;20028;-71
2022/06/03 02:55:02;;;;;;;5.32;4.82;;;;;;;;;;5014036;28;20018;-71
2022/06/03 02:57:35;;;;;;;5.00;4.50;;;;;;;;;;5013602;28;20101;-71
2022/06/03 03:00:13;;;;;;;5.72;5.22;;;;;;;;;;5013798;28;20022;-71
2022/06/03 03:02:58;;;;;;;5.90;4.85;;;;;;;;;;5012530;28;20022;-70
2022/06/03 03:05:42;;;;;;;276.58;149.30;;;;;;;;;;5013677;28;20053;-70
2022/06/03 03:08:26;;;;;;;814.80;546.25;;;;;;;;;;4998177;28;20034;-73
2022/06/03 03:11:08;;;;;;;19.98;11.68;;;;;;;;;;5014191;28;20430;-73
2022/06/03 03:13:52;;;;;;;12.93;8.40;;;;;;;;;;5013257;28;20032;-70
2022/06/03 03:16:37;;;;;;;73.68;42.58;;;;;;;;;;5013809;28;20439;-70
2022/06/03 03:19:21;;;;;;;29.38;14.85;;;;;;;;;;5014235;28;20300;-70
2022/06/03 03:22:06;;;;;;;23.90;12.25;;;;;;;;;;5013833;28;20476;-71
2022/06/03 03:24:51;;;;;;;26.08;12.85;;;;;;;;;;4984007;28;20026;-71
2022/06/03 03:27:35;;;;;;;24.65;12.30;;;;;;;;;;5013136;28;20128;-71
2022/06/03 03:30:13;;;;;;;17.70;10.00;;;;;;;;;;5012288;28;20037;-70
2022/06/03 03:32:49;;;;;;;22.45;10.10;;;;;;;;;;5013692;28;20029;-69
2022/06/03 03:35:28;;;;;;;10.07;5.35;;;;;;;;;;5014143;28;20033;-71
2022/06/03 03:38:06;;;;;;;11.57;6.03;;;;;;;;;;5013310;28;20100;-71
2022/06/03 03:40:32;;;;;;;8.65;4.65;;;;;;;;;;4982285;28;20062;-71
2022/06/03 03:43:16;;;;;;;3.33;2.80;;;;;;;;;;5013089;28;20029;-71
2022/06/03 03:46:01;;;;;;;9.38;4.45;;;;;;;;;;4997508;28;20148;-69
2022/06/03 03:48:48;;;;;;;3.97;2.65;;;;;;;;;;4973093;28;20049;-71
2022/06/03 03:51:34;;;;;;;2.67;2.30;;;;;;;;;;4995036;28;20072;-72
2022/06/03 03:54:36;;;;;;;7.30;3.67;;;;;;;;;;5012792;28;20068;-71
2022/06/03 03:57:02;;;;;;;3.42;2.42;;;;;;;;;;4943341;29;20458;-70
2022/06/03 03:59:56;;;;;;;4.13;2.17;;;;;;;;;;4993148;28;20116;-71
2022/06/03 04:02:33;;;;;;;3.42;2.20;;;;;;;;;;5013089;28;20042;-73
2022/06/03 04:05:18;;;;;;;3.33;2.38;;;;;;;;;;5012842;28;20029;-70
2022/06/03 04:07:44;;;;;;;2.78;2.22;;;;;;;;;;4999806;28;20038;-70
2022/06/03 04:10:27;;;;;;;3.50;2.08;;;;;;;;;;5012183;28;20148;-70
2022/06/03 04:12:53;;;;;;;4.40;2.05;;;;;;;;;;5013832;28;20048;-71
2022/06/03 04:15:28;;;;;;;3.13;2.17;;;;;;;;;;5013506;28;20026;-73
2022/06/03 04:17:54;;;;;;;2.35;2.10;;;;;;;;;;5012033;28;20026;-71
2022/06/03 04:20:32;;;;;;;3.40;2.13;;;;;;;;;;5012752;28;20036;-70
2022/06/03 04:23:11;;;;;;;2.00;1.70;;;;;;;;;;5012913;28;20030;-72
2022/06/03 04:25:49;;;;;;;2.38;2.17;;;;;;;;;;5011598;28;20036;-73
2022/06/03 04:28:32;;;;;;;3.92;2.10;;;;;;;;;;5011148;28;20112;-71
2022/06/03 04:31:13;;;;;;;3.05;2.22;;;;;;;;;;5012587;28;20053;-71
2022/06/03 04:33:39;;;;;;;;;;;;;;;;;;5012717;28;20026;-71
2022/06/03 04:36:11;;;;;;;3.80;2.20;;;;;;;;;;5012003;28;20337;-70
2022/06/03 04:38:56;;;;;;;2.95;1.92;;;;;;;;;;5011141;28;20079;-70
2022/06/03 04:41:40;;;;;;;3.10;1.95;;;;;;;;;;5012223;28;20032;-70
2022/06/03 04:44:06;;;;;;;3.05;1.58;;;;;;;;;;5011662;28;20053;-71
2022/06/03 04:46:53;;;;;;;1.63;1.40;;;;;;;;;;5012002;28;20072;-71
2022/06/03 04:49:24;;;;;;;2.55;1.35;;;23.50;34.70;;;;;;4969616;28;20456;-71
2022/06/03 04:52:09;;;;;;;3.10;2.00;;;;;;;;;;4992389;28;20462;-71
2022/06/03 04:55:12;;;;;;;2.28;1.50;;;26.50;30.10;;;;;;4982136;28;20377;-71
2022/06/03 04:58:21;;;;;;;5.50;1.55;;;26.40;29.70;;;;;;5011192;28;20033;-71
2022/06/03 05:01:22;;;;;;;1.88;1.38;;;25.60;30.70;;;;;;4986372;28;20026;-72
2022/06/03 05:04:05;;;;;;;2.78;1.55;;;25.80;31.30;;;;;;5011824;28;20108;-72
2022/06/03 05:06:50;;;;;;;2.88;1.77;;;;;;;;;;4978949;28;20064;-72
2022/06/03 05:10:09;;;;;;;1.70;1.60;;;24.50;32.60;;;;;;5002140;28;20052;-72
2022/06/03 05:13:03;;;;;;;2.45;1.27;;;24.90;33.20;;;;;;4956418;28;20074;-72
2022/06/03 05:15:47;;;;;;;3.72;2.13;;;26.20;29.90;;;;;;5004476;28;20034;-71
2022/06/03 05:18:21;;;;;;;2.35;1.30;;;24.20;32.60;;;;;;5008773;28;20407;-70
2022/06/03 05:21:22;;;;;;;2.95;1.75;;;23.80;33.80;;;;;;5010010;28;20018;-69
2022/06/03 05:23:50;;;;;;;4.13;1.50;;;24.00;33.40;;;;;;5011562;28;20026;-70
2022/06/03 05:26:45;;;;;;;3.05;1.58;;;24.80;33.10;;;;;;5011111;28;20041;-71
2022/06/03 05:29:39;;;;;;;6.60;1.60;;;25.20;32.10;;;;;;5009138;28;20032;-71
2022/06/03 05:32:42;;;;;;;2.47;1.48;;;27.30;29.70;;;;;;5011425;28;20519;-71
2022/06/03 05:35:22;;;;;;;1.83;1.13;;;28.40;27.40;;;;;;4940738;29;20028;-71
2022/06/03 05:37:56;;;;;;;1.58;1.30;;;27.60;28.20;;;;;;5014029;28;20034;-71
2022/06/03 05:40:43;;;;;;;3.13;1.40;;;26.70;28.90;;;;;;4979359;28;20025;-72
2022/06/03 05:43:14;;;;;;;2.13;1.30;;;26.60;29.70;;;;;;5010013;28;20033;-72
2022/06/03 05:46:06;;;;;;;1.70;1.30;;;26.80;29.60;;;;;;5006176;28;20647;-72
2022/06/03 05:48:53;;;;;;;3.83;1.30;;;27.30;28.60;;;;;;4981428;28;20053;-72
2022/06/03 05:51:30;;;;;;;3.13;1.23;;;27.50;28.10;;;;;;5011236;28;20026;-73
2022/06/03 05:53:59;;;;;;;7.00;1.80;;;;;;;;;;5011389;28;20040;-72
2022/06/03 05:56:47;;;;;;;5.03;1.63;;;25.40;30.90;;;;;;5011097;28;20018;-72
2022/06/03 05:59:33;;;;;;;2.28;1.85;;;25.60;30.80;;;;;;5010122;28;20026;-72
2022/06/03 06:02:32;;;;;;;3.20;1.20;;;25.00;31.80;;;;;;5011189;28;20550;-72
2022/06/03 06:05:01;;;;;;;4.80;1.83;;;26.30;31.30;;;;;;5005880;28;20419;-70
2022/06/03 06:07:35;;;;;;;6.15;1.13;;;27.40;28.90;;;;;;5003754;28;20136;-71
2022/06/03 06:10:28;;;;;;;4.03;1.35;;;27.90;28.30;;;;;;4997063;28;20104;-73
2022/06/03 06:13:09;;;;;;;5.63;1.30;;;27.60;28.60;;;;;;4999861;28;20045;-72
2022/06/03 06:15:46;;;;;;;3.95;1.25;;;27.80;28.20;;;;;;5011193;28;20026;-71
2022/06/03 06:18:40;;;;;;;4.15;1.38;;;27.60;28.00;;;;;;5008581;28;20030;-71
2022/06/03 06:21:44;;;;;;;4.53;1.77;;;27.90;28.00;;;;;;5011156;28;20018;-71
2022/06/03 06:24:12;;;;;;;1.65;1.20;;;28.20;27.80;;;;;;5010730;28;20021;-73
2022/06/03 06:26:45;;;;;;;3.80;1.10;;;28.50;28.20;;;;;;5010806;28;20018;-72
2022/06/03 06:29:21;;;;;;;2.88;1.30;;;;;;;;;;5010052;28;20026;-70
2022/06/03 06:32:15;;;;;;;2.47;1.27;;;30.40;24.80;;;;;;5011112;28;20029;-71
2022/06/03 06:35:17;;;;;;;2.67;1.40;;;29.20;26.30;;;;;;4982956;28;20018;-68
2022/06/03 06:38:05;;;;;;;2.80;1.52;;;28.10;27.70;;;;;;5002288;28;20015;-71
2022/06/03 06:43:56;;;;;;;1.27;1.13;;;27.30;28.80;;;;;;4998539;28;20020;-77
2022/06/03 06:46:40;;;;;;;4.35;1.45;;;28.50;28.40;;;;;;5010706;28;20029;-78
2022/06/03 06:49:15;;;;;;;4.47;1.77;;;28.60;27.40;;;;;;5011196;23;20357;-71
2022/06/03 06:52:11;;;;;;;2.80;1.42;;;28.40;27.70;;;;;;5001032;28;20069;-72
2022/06/03 06:54:46;;;;;;;5.43;1.50;;;28.70;27.10;;;;;;4999988;28;20084;-72
2022/06/03 06:57:20;;;;;;;4.40;1.23;;;27.70;28.30;;;;;;5009914;28;20061;-71
2022/06/03 07:00:16;;;;;;;3.50;2.25;;;27.00;29.10;;;;;;5001413;28;20105;-70
2022/06/03 07:02:44;;;;;;;4.43;1.30;;;27.10;29.50;;;;;;5011002;28;20365;-71
2022/06/03 07:05:24;;;;;;;1.98;1.13;;;27.60;29.10;;;;;;4997562;28;20117;-72
2022/06/03 07:08:10;;;;;;;4.65;3.13;;;27.20;29.80;;;;;;5005492;28;20073;-72
2022/06/03 07:10:51;;;;;;;3.17;1.33;;;27.40;30.10;;;;;;5007865;28;20488;-71
2022/06/03 07:13:28;;;;;;;2.67;1.30;;;28.50;28.50;;;;;;4997779;28;20053;-73
2022/06/03 07:16:01;;;;;;;1.45;1.20;;;27.90;29.10;;;;;;5010074;28;20036;-72
2022/06/03 07:21:30;;;;;;;4.25;1.27;;;27.30;30.60;;;;;;4982681;28;20029;-70
2022/06/03 07:24:12;;;;;;;4.07;1.27;;;27.60;29.90;;;;;;5005068;28;20022;-71
2022/06/03 07:26:53;;;;;;;4.57;1.40;;;28.30;29.40;;;;;;5007957;28;20476;-71
2022/06/03 07:29:22;;;;;;;2.03;1.15;;;28.50;29.20;;;;;;4980405;28;20476;-69
2022/06/03 07:32:04;;;;;;;1.88;1.20;;;28.70;28.80;;;;;;5005889;28;20396;-72
2022/06/03 07:34:54;;;;;;;2.97;1.52;;;29.70;28.10;;;;;;5006756;28;20498;-70
2022/06/03 07:37:29;;;;;;;3.13;1.27;;;30.00;27.20;;;;;;4979617;28;20029;-71
2022/06/03 07:40:03;;;;;;;2.20;1.27;;;30.10;27.40;;;;;;5005276;28;20033;-70
2022/06/03 07:42:47;;;;;;;1.80;1.00;;;29.80;27.20;;;;;;5006639;28;20053;-69
2022/06/03 07:45:21;;;;;;;2.63;1.70;;;28.70;28.80;;;;;;4987575;28;20034;-72
2022/06/03 07:47:47;;;;;;;2.15;1.13;;;28.60;29.00;;;;;;4993010;28;20594;-72
2022/06/03 07:50:19;;;;;;;2.70;1.15;;;28.00;29.60;;;;;;5010136;28;20129;-72
2022/06/03 07:52:48;;;;;;;;;;;27.80;30.00;;;;;;4997191;28;20058;-72
2022/06/03 07:55:19;;;;;;;1.73;1.30;;;28.10;29.60;;;;;;5009211;28;19905;-72
2022/06/03 07:57:50;;;;;;;2.05;1.08;;;28.70;29.00;;;;;;4994029;28;20027;-73
2022/06/03 08:00:18;;;;;;;1.33;0.90;;;28.70;29.30;;;;;;5004667;28;20057;-73
2022/06/03 08:02:44;;;;;;;3.38;1.00;;;29.00;28.40;;;;;;4997727;28;20030;-72
2022/06/03 08:05:17;;;;;;;4.00;1.02;;;29.30;27.80;;;;;;5003522;28;20438;-73
2022/06/03 08:10:58;;;;;;;1.33;0.85;;;28.40;29.70;;;;;;4996070;28;20033;-72
2022/06/03 08:13:42;;;;;;;3.53;1.13;;;;;;;;;;4991778;28;20473;-72
2022/06/03 08:16:11;;;;;;;1.98;1.27;;;;;;;;;;5009342;28;20029;-72
2022/06/03 08:18:42;;;;;;;4.78;1.20;;;;;;;;;;5009902;28;20022;-73
2022/06/03 08:21:11;;;;;;;2.75;0.90;;;;;;;;;;5010332;28;20402;-72
2022/06/03 08:23:37;;;;;;;2.25;1.10;;;28.60;30.00;;;;;;5011109;28;20032;-73
2022/06/03 08:26:16;;;;;;;2.45;1.20;;;28.50;30.00;;;;;;5010984;28;20084;-71
2022/06/03 08:28:49;;;;;;;1.67;1.10;;;28.70;30.00;;;;;;5010820;28;20427;-72
2022/06/03 08:31:17;;;;;;;3.85;1.10;;;29.20;29.60;;;;;;5012117;28;20529;-72
2022/06/03 08:33:51;;;;;;;1.45;1.27;;;29.40;28.90;;;;;;5012017;28;20484;-72
2022/06/03 08:36:21;;;;;;;3.00;1.10;;;29.80;29.00;;;;;;5013620;28;20030;-71
2022/06/03 08:39:01;;;;;;;4.97;1.50;;;29.60;28.60;;;;;;5013270;28;20480;-71
2022/06/03 08:41:49;;;;;;;4.22;0.80;;;29.00;29.50;;;;;;5015312;28;20026;-71
2022/06/03 08:44:40;;;;;;;2.22;1.20;;;29.30;29.10;;;;;;5013651;28;20045;-72
2022/06/03 08:47:21;;;;;;;1.38;0.68;;;28.90;29.60;;;;;;5013185;28;20022;-71
2022/06/03 08:50:05;;;;;;;0.95;0.80;;;29.50;29.30;;;;;;5013127;28;20033;-71
2022/06/03 08:52:45;;;;;;;5.38;1.10;;;29.20;29.10;;;;;;5012374;28;20030;-73
2022/06/03 08:55:31;;;;;;;2.08;1.08;;;28.40;30.70;;;;;;5011500;28;20392;-72
2022/06/03 08:58:04;;;;;;;2.65;1.10;;;29.40;29.40;;;;;;5011424;28;20507;-71
2022/06/03 09:00:58;;;;;;;3.90;1.13;;;29.70;28.50;;;;;;5012572;28;20030;-72
2022/06/03 09:03:26;;;;;;;5.55;0.98;;;29.30;28.10;;;;;;5008669;28;20041;-71
2022/06/03 09:06:11;;;;;;;2.88;0.93;;;28.20;29.40;;;;;;5012119;28;20026;-73
2022/06/03 09:08:54;;;;;;;3.60;0.98;;;28.60;29.20;;;;;;5010199;28;20026;-72
2022/06/03 09:11:29;;;;;;;3.13;1.20;;;28.60;28.90;;;;;;5012072;28;20018;-72
2022/06/03 09:14:06;;;;;;;3.75;0.85;;;28.50;28.90;;;;;;5010808;28;20033;-72
2022/06/03 09:16:34;;;;;;;3.33;1.00;;;28.10;29.40;;;;;;5012445;28;20026;-72
2022/06/03 09:19:10;;;;;;;3.40;1.33;;;28.10;30.00;;;;;;5011810;28;20036;-72
2022/06/03 09:21:41;;;;;;;2.28;1.02;;;28.90;29.00;;;;;;5012475;28;20396;-72
2022/06/03 09:24:12;;;;;;;3.88;1.17;;;29.70;27.00;;;;;;5012038;28;20163;-73
2022/06/03 09:26:52;;;;;;;1.15;0.90;;;28.70;27.40;;;;;;5012248;28;20037;-72
2022/06/03 09:29:19;;;;;;;3.50;0.90;;;;;;;;;;5011185;28;20064;-71
2022/06/03 09:31:56;;;;;;;4.88;1.50;;;27.90;28.20;;;;;;5010594;28;20057;-71
2022/06/03 09:34:34;;;;;;;2.40;1.25;;;28.00;28.40;;;;;;5011709;28;20026;-70
2022/06/03 09:37:00;;;;;;;1.83;1.50;;;28.60;28.10;;;;;;5011531;28;20022;-70
2022/06/03 09:39:26;;;;;;;1.02;0.80;;;29.00;28.40;;;;;;5011406;28;20033;-71
2022/06/03 09:41:55;;;;;;;3.00;1.05;;;28.90;27.30;;;;;;5011783;28;20057;-72
2022/06/03 09:44:23;;;;;;;1.42;1.08;;;29.30;27.20;;;;;;5011867;28;20033;-70
2022/06/03 09:46:57;;;;;;;4.20;1.77;;;29.00;26.90;;;;;;5011699;28;20018;-71
2022/06/03 09:49:24;;;;;;;4.13;1.42;;;28.60;28.30;;;;;;5009657;28;20499;-72
2022/06/03 09:51:56;;;;;;;2.65;1.25;;;28.00;27.90;;;;;;5011546;28;20133;-72
2022/06/03 09:54:39;;;;;;;2.92;1.00;;;27.40;29.30;;;;;;5011650;28;20116;-72
2022/06/03 09:57:33;;;;;;;3.60;1.23;;;27.90;29.00;;;;;;5011058;28;20054;-72
2022/06/03 10:00:08;;;;;;;1.55;1.00;;;28.00;28.90;;;;;;4984711;28;20039;-70
2022/06/03 10:02:34;;;;;;;2.00;1.08;;;28.00;29.10;;;;;;4991984;28;20042;-72
2022/06/03 10:05:01;;;;;;;2.22;1.20;;;27.40;29.40;;;;;;4991894;28;20436;-70
2022/06/03 10:07:27;;;;;;;4.85;1.20;;;27.40;29.90;;;;;;4989622;28;20066;-71
2022/06/03 10:12:56;;;;;;;3.42;1.10;;;27.50;29.40;;;;;;4991869;28;20045;-71
2022/06/03 10:15:56;;;;;;;3.25;1.15;;;27.60;30.00;;;;;;4991970;28;20034;-71
2022/06/03 10:18:49;;;;;;;4.53;1.23;;;27.50;30.40;;;;;;4994799;28;20057;-72
2022/06/03 10:21:14;;;;;;;2.83;1.60;;;27.50;31.00;;;;;;4994436;28;20034;-72
2022/06/03 10:24:06;;;;;;;2.90;2.15;;;27.90;30.70;;;;;;4994352;28;20161;-72
2022/06/03 10:26:40;;;;;;;1.65;1.20;;;28.30;30.10;;;;;;4994105;28;20030;-72
2022/06/03 10:29:10;;;;;;;4.03;1.85;;;28.40;29.40;;;;;;4994902;28;20027;-72
2022/06/03 10:31:36;;;;;;;1.95;0.90;;;27.60;31.00;;;;;;4995537;28;20091;-73
2022/06/03 10:34:10;;;;;;;2.25;1.48;;;;;;;;;;4995248;28;20440;-72
2022/06/03 10:36:41;;;;;;;3.65;1.65;;;;;;;;;;4995177;28;20037;-72
2022/06/03 10:39:09;;;;;;;3.03;1.70;;;27.20;32.40;;;;;;4994467;28;20050;-72
2022/06/03 10:41:46;;;;;;;2.30;1.50;;;26.80;32.90;;;;;;4995516;28;20463;-72
2022/06/03 10:44:14;;;;;;;3.85;1.77;;;26.90;33.30;;;;;;4995157;28;20040;-71
2022/06/03 10:46:58;;;;;;;3.13;1.50;;;26.90;33.40;;;;;;4995095;28;20074;-72
2022/06/03 10:49:25;;;;;;;3.45;2.92;;;;;;;;;;4994429;28;20077;-73
2022/06/03 11:02:53;;;;;;;4.40;1.50;;;25.70;34.90;;;;;;4994668;28;20038;-72
2022/06/03 11:05:31;;;;;;;5.43;1.77;;;25.90;35.50;;;;;;4995028;28;20030;-72
2022/06/03 11:08:05;;;;;;;3.47;1.50;;;25.80;34.80;;;;;;4993767;28;20117;-72
2022/06/03 11:10:43;;;;;;;3.28;1.50;;;25.70;35.50;;;;;;4994680;28;20051;-73
2022/06/03 11:13:11;;;;;;;1.95;1.45;;;25.70;35.50;;;;;;4994491;28;20444;-72
2022/06/03 11:15:41;;;;;;;3.65;2.22;;;25.60;35.50;;;;;;4994404;28;20495;-71
2022/06/03 11:18:28;;;;;;;2.38;1.40;;;25.70;36.60;;;;;;4992540;28;20033;-73
2022/06/03 11:20:56;;;;;;;4.43;1.52;;;25.80;36.00;;;;;;4994558;28;20101;-72
2022/06/03 11:23:22;;;;;;;3.22;2.47;;;25.90;35.90;;;;;;4994199;28;20050;-72
2022/06/03 11:25:54;;;;;;;4.13;1.90;;;26.00;36.50;;;;;;4994422;28;20038;-72
2022/06/03 11:28:28;;;;;;;3.65;2.35;;;26.00;35.80;;;;;;4993085;28;20031;-72
2022/06/03 11:31:00;;;;;;;4.38;1.90;;;26.20;37.00;;;;;;4994703;28;20097;-72
2022/06/03 11:33:30;;;;;;;3.45;1.73;;;26.20;36.30;;;;;;4993315;28;20027;-71
2022/06/03 11:35:59;;;;;;;3.47;1.85;;;26.10;34.70;;;;;;4994387;28;20396;-72
2022/06/03 11:38:31;;;;;;;2.33;1.48;;;25.90;36.90;;;;;;4993603;28;20097;-71
2022/06/03 11:41:01;;;;;;;6.78;2.03;;;26.00;35.90;;;;;;4994500;28;20026;-71
2022/06/03 11:43:49;;;;;;;5.05;1.90;;;26.00;34.90;;;;;;4993996;28;20057;-70
2022/06/03 11:46:20;;;;;;;6.85;1.75;;;25.80;36.40;;;;;;4992773;28;20105;-71
2022/06/03 11:48:49;;;;;;;2.97;1.75;;;26.00;35.80;;;;;;4993143;28;20527;-72
2022/06/03 11:51:14;;;;;;;1.92;1.50;;;26.00;35.90;;;;;;4993875;28;20440;-71
2022/06/03 11:53:50;;;;;;;1.40;1.30;;;26.30;35.10;;;;;;4992660;28;20027;-73
2022/06/03 11:56:24;;;;;;;2.85;1.30;;;26.40;34.20;;;;;;4993745;28;20053;-71
2022/06/03 11:58:55;;;;;;;2.42;1.55;;;26.10;34.80;;;;;;4988176;28;20103;-71
2022/06/03 12:01:32;;;;;;;4.28;2.08;;;25.90;35.10;;;;;;4993718;28;20026;-72
2022/06/03 12:04:19;;;;;;;2.03;1.50;;;26.00;36.10;;;;;;4993753;28;20122;-71
2022/06/03 12:07:04;;;;;;;2.38;1.60;;;26.30;35.90;;;;;;4993600;28;20472;-73
2022/06/03 12:09:54;;;;;;;4.00;1.60;;;26.30;35.30;;;;;;4993562;28;20026;-71
2022/06/03 12:15:31;;;;;;;5.18;1.95;;;26.30;34.90;;;;;;4994234;28;20034;-72
2022/06/03 12:18:14;;;;;;;2.97;1.75;;;26.20;35.40;;;;;;4993413;28;20046;-71
2022/06/03 12:20:51;;;;;;;5.15;1.92;;;26.20;35.40;;;;;;4996304;28;20033;-71
2022/06/03 12:23:17;;;;;;;3.78;1.85;;;26.30;35.90;;;;;;4996716;28;20108;-71
2022/06/03 12:25:45;;;;;;;2.85;1.52;;;26.30;36.10;;;;;;4995738;28;20432;-72
2022/06/03 12:28:33;;;;;;;9.68;2.15;;;26.40;36.20;;;;;;4995881;28;20026;-70
2022/06/03 12:31:06;;;;;;;4.00;1.67;;;26.40;35.80;;;;;;4995240;28;20056;-72
2022/06/03 12:33:44;;;;;;;4.53;1.77;;;26.40;36.10;;;;;;4994735;28;20074;-72
2022/06/03 12:36:22;;;;;;;2.83;1.70;;;26.40;35.60;;;;;;4993930;28;20033;-72
2022/06/03 12:39:12;;;;;;;3.20;1.73;;;26.60;36.30;;;;;;4990613;28;20023;-70
2022/06/03 12:41:44;;;;;;;6.78;4.22;;;26.40;35.60;;;;;;4993816;28;20046;-72
2022/06/03 12:44:32;;;;;;;4.93;2.15;;;26.30;35.00;;;;;;4992320;28;20035;-72
2022/06/03 12:47:42;;;;;;;58.85;29.73;;;26.10;35.90;;;;;;4993376;28;20026;-70
2022/06/03 12:50:07;;;;;;;5.97;3.00;;;26.50;36.70;;;;;;5015704;23;20181;-71
2022/06/03 12:52:35;;;;;;;8.98;2.75;;;26.60;35.60;;;;;;4991892;28;20499;-72
2022/06/03 12:55:04;;;;;;;2.47;1.70;;;26.70;35.50;;;;;;4991707;28;20018;-71
2022/06/03 12:57:50;;;;;;;3.53;1.83;;;26.70;35.40;;;;;;4991649;28;20408;-72
2022/06/03 13:00:18;;;;;;;1.70;1.60;;;26.80;35.30;;;;;;4992148;28;20031;-71
2022/06/03 13:02:59;;;;;;;2.58;1.60;;;26.80;34.90;;;;;;4992765;28;20023;-72
2022/06/03 13:05:28;;;;;;;2.78;2.08;;;26.90;34.60;;;;;;4991962;28;20395;-72
2022/06/03 13:08:01;;;;;;;5.00;2.03;;;26.60;34.80;;;;;;4991778;28;20084;-70
2022/06/03 13:10:30;;;;;;;3.03;1.40;;;26.50;35.20;;;;;;4992579;28;20041;-74
2022/06/03 13:13:17;;;;;;;2.08;1.50;;;26.80;34.60;;;;;;4992650;28;20023;-73
2022/06/03 13:15:48;;;;;;;1.67;1.33;;;27.00;34.30;;;;;;4992611;28;20389;-72
2022/06/03 13:18:37;;;;;;;1.70;1.33;;;26.80;34.20;;;;;;4991421;28;20030;-72
2022/06/03 13:21:02;;;;;;;2.58;1.70;;;26.80;34.60;;;;;;4992611;28;20045;-72
2022/06/03 13:23:42;;;;;;;1.95;1.63;;;26.70;34.40;;;;;;4991226;28;20026;-73
2022/06/03 13:26:23;;;;;;;1.92;1.30;;;26.60;34.00;;;;;;4992593;28;20108;-73
2022/06/03 13:28:53;;;;;;;3.03;1.40;;;26.50;34.60;;;;;;4991490;28;20520;-73
2022/06/03 13:31:28;;;;;;;3.67;1.65;;;26.40;34.10;;;;;;4992363;28;20489;-69
2022/06/03 13:34:12;;;;;;;3.70;1.25;;;26.40;33.80;;;;;;4990879;28;20027;-74
2022/06/03 13:36:40;;;;;;;1.75;1.30;;;26.50;34.20;;;;;;4992210;28;20034;-72
2022/06/03 13:39:24;;;;;;;1.73;1.55;;;26.50;35.00;;;;;;4989999;28;20397;-73
2022/06/03 13:45:22;;;;;;;1.27;1.00;;;26.70;33.70;;;;;;4988726;28;20057;-72
2022/06/03 13:47:52;;;;;;;3.70;1.40;;;26.60;32.40;;;;;;4980891;28;20038;-72
2022/06/03 13:50:35;;;;;;;2.37;1.90;;;26.70;33.20;;;;;;4993154;28;20030;-72
2022/06/03 13:53:06;;;;;;;2.75;1.50;;;26.90;34.00;;;;;;4996083;28;20113;-71
2022/06/03 13:55:37;;;;;;;1.35;1.25;;;27.00;32.20;;;;;;4994001;28;20050;-71
2022/06/03 13:58:09;;;;;;;1.48;1.10;;;27.00;30.90;;;;;;4975955;28;20034;-72
2022/06/03 14:00:51;;;;;;;1.95;1.75;;;27.00;31.70;;;;;;4976513;28;20018;-73
2022/06/03 14:03:24;;;;;;;1.20;1.10;;;27.10;33.30;;;;;;4976320;28;20520;-72
2022/06/03 14:06:02;;;;;;;2.78;1.23;;;27.00;32.90;;;;;;4976913;28;20033;-72
2022/06/03 14:08:42;;;;;;;3.08;1.60;;;27.10;32.90;;;;;;4974414;28;20026;-73
2022/06/03 14:11:15;;;;;;;5.05;1.27;;;27.10;32.90;;;;;;4976974;28;20054;-74
2022/06/03 14:13:47;;;;;;;1.77;1.67;;;27.20;33.20;;;;;;4976432;28;20050;-72
2022/06/03 14:16:21;;;;;;;2.15;1.55;;;27.50;33.60;;;;;;4991862;28;20027;-72
2022/06/03 14:19:02;;;;;;;3.75;1.73;;;27.80;31.80;;;;;;4990898;28;20052;-73
2022/06/03 14:21:32;;;;;;;11.35;2.70;;;28.00;32.10;;;;;;4976296;28;20034;-72
2022/06/03 14:24:01;;;;;;;2.67;1.65;;;28.10;31.50;;;;;;4976289;28;20027;-73
2022/06/03 14:26:39;;;;;;;5.75;1.40;;;28.30;31.20;;;;;;4976252;28;20050;-73
2022/06/03 14:29:14;;;;;;;5.13;1.48;;;28.40;30.40;;;;;;4975371;28;20037;-73
2022/06/03 14:31:46;;;;;;;1.75;1.60;;;28.50;30.20;;;;;;4975393;28;20437;-74
2022/06/03 14:34:38;;;;;;;1.83;1.38;;;28.70;30.50;;;;;;4994365;28;20447;-74
2022/06/03 14:37:10;;;;;;;4.03;1.42;;;28.80;30.80;;;;;;4993454;28;20480;-70
2022/06/03 14:39:37;;;;;;;2.03;1.90;;;28.70;30.40;;;;;;4994109;28;20395;-73
2022/06/03 14:42:08;;;;;;;3.65;1.20;;;28.70;31.20;;;;;;4993985;28;20085;-73
2022/06/03 14:44:36;;;;;;;2.83;1.67;;;28.70;31.00;;;;;;4994722;28;20277;-73
2022/06/03 14:47:06;;;;;;;3.13;1.35;;;28.80;30.60;;;;;;4993485;28;20031;-74
2022/06/03 14:49:43;;;;;;;1.50;1.35;;;28.60;28.80;;;;;;4993978;28;20388;-73